sensor_id;sensor_type;location;lat;lon;timestamp;pressure;altitude;pressure_sealevel;temperature;humidity
11888;BME280;6003;42.756;23.130;2022-09-09T00:02:19;156694.91;;;16.60;82.01
11888;BME280;6003;42.756;23.130;2022-09-09T00:04:55;156693.59;;;16.59;81.84
11888;BME280;6003;42.756;23.130;2022-09-09T00:07:33;156677.66;;;16.53;81.79
11888;BME280;6003;42.756;23.130;2022-09-09T00:10:14;156680.28;;;16.54;82.18
11888;BME280;6003;42.756;23.130;2022-09-09T00:12:50;156653.75;;;16.44;82.69
11888;BME280;6003;42.756;23.130;2022-09-09T00:15:23;156621.91;;;16.32;82.52
11888;BME280;6003;42.756;23.130;2022-09-09T00:17:56;156651.13;;;16.43;82.54
11888;BME280;6003;42.756;23.130;2022-09-09T00:20:30;156640.47;;;16.39;82.96
11888;BME280;6003;42.756;23.130;2022-09-09T00:23:03;156639.16;;;16.38;83.24
11888;BME280;6003;42.756;23.130;2022-09-09T00:25:37;156584.75;;;16.17;83.52
11888;BME280;6003;42.756;23.130;2022-09-09T00:28:13;156607.31;;;16.26;84.28
11888;BME280;6003;42.756;23.130;2022-09-09T00:30:44;156608.63;;;16.27;84.75
11888;BME280;6003;42.756;23.130;2022-09-09T00:33:24;156597.97;;;16.22;84.85
11888;BME280;6003;42.756;23.130;2022-09-09T00:35:56;156600.66;;;16.23;84.81
11888;BME280;6003;42.756;23.130;2022-09-09T00:38:28;156575.41;;;16.14;85.03
11888;BME280;6003;42.756;23.130;2022-09-09T00:41:05;156559.50;;;16.08;85.35
11888;BME280;6003;42.756;23.130;2022-09-09T00:43:37;156575.41;;;16.14;85.85
11888;BME280;6003;42.756;23.130;2022-09-09T00:46:25;156554.22;;;16.06;85.30
11888;BME280;6003;42.756;23.130;2022-09-09T00:49:04;156554.22;;;16.06;86.44
11888;BME280;6003;42.756;23.130;2022-09-09T00:51:44;156539.63;;;16.00;86.27
11888;BME280;6003;42.756;23.130;2022-09-09T00:54:23;156497.13;;;15.84;87.00
11888;BME280;6003;42.756;23.130;2022-09-09T00:56:58;156486.53;;;15.79;87.21
11888;BME280;6003;42.756;23.130;2022-09-09T00:59:35;156475.88;;;15.75;87.97
11888;BME280;6003;42.756;23.130;2022-09-09T01:02:13;156467.94;;;15.72;87.81
11888;BME280;6003;42.756;23.130;2022-09-09T01:04:42;156459.97;;;15.69;87.78
11888;BME280;6003;42.756;23.130;2022-09-09T01:07:15;156421.44;;;15.54;87.99
11888;BME280;6003;42.756;23.130;2022-09-09T01:09:51;156420.13;;;15.54;87.97
11888;BME280;6003;42.756;23.130;2022-09-09T01:12:25;156404.22;;;15.48;88.97
11888;BME280;6003;42.756;23.130;2022-09-09T01:14:58;156410.81;;;15.50;88.43
11888;BME280;6003;42.756;23.130;2022-09-09T01:17:31;156433.38;;;15.59;88.01
11888;BME280;6003;42.756;23.130;2022-09-09T01:20:04;156430.72;;;15.58;89.03
11888;BME280;6003;42.756;23.130;2022-09-09T01:22:35;156413.50;;;15.51;88.74
11888;BME280;6003;42.756;23.130;2022-09-09T01:25:20;156408.16;;;15.49;89.32
11888;BME280;6003;42.756;23.130;2022-09-09T01:27:51;156380.31;;;15.39;90.04
11888;BME280;6003;42.756;23.130;2022-09-09T01:30:21;156408.16;;;15.49;89.69
11888;BME280;6003;42.756;23.130;2022-09-09T01:32:51;156393.56;;;15.44;89.68
11888;BME280;6003;42.756;23.130;2022-09-09T01:35:29;156425.41;;;15.56;89.60
11888;BME280;6003;42.756;23.130;2022-09-09T01:37:59;156397.56;;;15.45;89.86
11888;BME280;6003;42.756;23.130;2022-09-09T01:40:26;156425.41;;;15.56;89.84
11888;BME280;6003;42.756;23.130;2022-09-09T01:42:54;156422.78;;;15.55;89.38
11888;BME280;6003;42.756;23.130;2022-09-09T01:45:22;156430.72;;;15.58;89.48
11888;BME280;6003;42.756;23.130;2022-09-09T01:47:50;156434.72;;;15.60;89.65
11888;BME280;6003;42.756;23.130;2022-09-09T01:50:18;156438.69;;;15.61;89.38
11888;BME280;6003;42.756;23.130;2022-09-09T01:52:49;156446.63;;;15.64;89.13
11888;BME280;6003;42.756;23.130;2022-09-09T01:55:19;156441.31;;;15.62;88.65
11888;BME280;6003;42.756;23.130;2022-09-09T01:57:55;156438.69;;;15.61;89.17
11888;BME280;6003;42.756;23.130;2022-09-09T02:00:29;156429.41;;;15.57;89.21
11888;BME280;6003;42.756;23.130;2022-09-09T02:03:00;156414.81;;;15.52;88.89
11888;BME280;6003;42.756;23.130;2022-09-09T02:05:36;156401.53;;;15.47;89.57
11888;BME280;6003;42.756;23.130;2022-09-09T02:08:06;156393.56;;;15.44;89.63
11888;BME280;6003;42.756;23.130;2022-09-09T02:10:38;156390.94;;;15.43;89.50
11888;BME280;6003;42.756;23.130;2022-09-09T02:13:11;156414.81;;;15.52;89.75
11888;BME280;6003;42.756;23.130;2022-09-09T02:15:43;156413.50;;;15.51;89.51
11888;BME280;6003;42.756;23.130;2022-09-09T02:18:13;156414.81;;;15.52;89.38
11888;BME280;6003;42.756;23.130;2022-09-09T02:20:43;156378.97;;;15.38;89.72
11888;BME280;6003;42.756;23.130;2022-09-09T02:23:12;156401.53;;;15.47;89.74
11888;BME280;6003;42.756;23.130;2022-09-09T02:25:41;156404.22;;;15.48;89.94
11888;BME280;6003;42.756;23.130;2022-09-09T02:28:11;156398.91;;;15.46;90.06
11888;BME280;6003;42.756;23.130;2022-09-09T02:30:42;156364.38;;;15.32;90.42
11888;BME280;6003;42.756;23.130;2022-09-09T02:36:32;156375.03;;;15.37;90.09
11888;BME280;6003;42.756;23.130;2022-09-09T02:39:01;156373.66;;;15.36;90.96
11888;BME280;6003;42.756;23.130;2022-09-09T02:41:32;156369.69;;;15.34;91.21
11888;BME280;6003;42.756;23.130;2022-09-09T02:44:01;156345.84;;;15.25;91.48
11888;BME280;6003;42.756;23.130;2022-09-09T02:46:39;156355.09;;;15.29;91.08
11888;BME280;6003;42.756;23.130;2022-09-09T02:49:11;156359.06;;;15.30;91.71
11888;BME280;6003;42.756;23.130;2022-09-09T02:51:49;156331.25;;;15.20;91.55
11888;BME280;6003;42.756;23.130;2022-09-09T02:54:24;156348.47;;;15.26;91.51
11888;BME280;6003;42.756;23.130;2022-09-09T02:56:54;156327.25;;;15.18;92.17
11888;BME280;6003;42.756;23.130;2022-09-09T02:59:24;156340.50;;;15.23;92.23
11888;BME280;6003;42.756;23.130;2022-09-09T03:01:52;156310.00;;;15.11;92.20
11888;BME280;6003;42.756;23.130;2022-09-09T03:04:19;156328.56;;;15.19;91.67
11888;BME280;6003;42.756;23.130;2022-09-09T03:06:46;156337.88;;;15.22;90.98
11888;BME280;6003;42.756;23.130;2022-09-09T03:09:13;156329.94;;;15.19;90.97
11888;BME280;6003;42.756;23.130;2022-09-09T03:11:40;156311.31;;;15.12;92.00
11888;BME280;6003;42.756;23.130;2022-09-09T03:14:07;156321.91;;;15.16;92.03
11888;BME280;6003;42.756;23.130;2022-09-09T03:16:37;156329.94;;;15.19;91.86
11888;BME280;6003;42.756;23.130;2022-09-09T03:19:04;156327.25;;;15.18;92.42
11888;BME280;6003;42.756;23.130;2022-09-09T03:21:31;156327.25;;;15.18;92.39
11888;BME280;6003;42.756;23.130;2022-09-09T03:23:58;156299.38;;;15.07;92.21
11888;BME280;6003;42.756;23.130;2022-09-09T03:26:25;156316.66;;;15.14;92.32
11888;BME280;6003;42.756;23.130;2022-09-09T03:28:52;156307.38;;;15.10;93.29
11888;BME280;6003;42.756;23.130;2022-09-09T03:31:19;156315.34;;;15.14;93.44
11888;BME280;6003;42.756;23.130;2022-09-09T03:36:46;156303.38;;;15.09;93.66
11888;BME280;6003;42.756;23.130;2022-09-09T03:39:14;156287.47;;;15.03;94.01
11888;BME280;6003;42.756;23.130;2022-09-09T03:41:41;156258.28;;;14.92;93.92
11888;BME280;6003;42.756;23.130;2022-09-09T03:44:07;156267.56;;;14.95;94.37
11888;BME280;6003;42.756;23.130;2022-09-09T03:46:34;156267.56;;;14.95;94.44
11888;BME280;6003;42.756;23.130;2022-09-09T03:49:01;156271.56;;;14.97;94.77
11888;BME280;6003;42.756;23.130;2022-09-09T03:51:28;156266.22;;;14.95;95.39
11888;BME280;6003;42.756;23.130;2022-09-09T03:53:58;156272.88;;;14.97;95.21
11888;BME280;6003;42.756;23.130;2022-09-09T03:56:25;156276.81;;;14.99;95.16
11888;BME280;6003;42.756;23.130;2022-09-09T03:58:52;156282.16;;;15.01;94.57
11888;BME280;6003;42.756;23.130;2022-09-09T04:01:19;156288.78;;;15.03;94.61
11888;BME280;6003;42.756;23.130;2022-09-09T04:03:46;156278.19;;;14.99;95.45
11888;BME280;6003;42.756;23.130;2022-09-09T04:06:13;156260.91;;;14.93;95.09
11888;BME280;6003;42.756;23.130;2022-09-09T04:08:43;156303.38;;;15.09;95.02
11888;BME280;6003;42.756;23.130;2022-09-09T04:11:11;156320.59;;;15.16;94.62
11888;BME280;6003;42.756;23.130;2022-09-09T04:13:39;156341.84;;;15.24;94.08
11888;BME280;6003;42.756;23.130;2022-09-09T04:16:09;156355.09;;;15.29;93.92
11888;BME280;6003;42.756;23.130;2022-09-09T04:18:36;156371.03;;;15.35;93.38
11888;BME280;6003;42.756;23.130;2022-09-09T04:21:04;156412.19;;;15.51;93.59
11888;BME280;6003;42.756;23.130;2022-09-09T04:23:32;156465.28;;;15.71;93.10
11888;BME280;6003;42.756;23.130;2022-09-09T04:26:01;156526.34;;;15.95;91.71
11888;BME280;6003;42.756;23.130;2022-09-09T04:28:32;156563.50;;;16.09;91.56
11888;BME280;6003;42.756;23.130;2022-09-09T04:31:04;156675.00;;;16.52;91.19
11888;BME280;6003;42.756;23.130;2022-09-09T04:33:32;156797.22;;;16.99;89.30
11888;BME280;6003;42.756;23.130;2022-09-09T04:35:59;156942.00;;;17.55;87.55
11888;BME280;6003;42.756;23.130;2022-09-09T04:38:26;157078.97;;;18.08;84.81
11888;BME280;6003;42.756;23.130;2022-09-09T04:40:56;157120.16;;;18.23;81.60
11888;BME280;6003;42.756;23.130;2022-09-09T04:43:55;157251.88;;;18.74;81.56
11888;BME280;6003;42.756;23.130;2022-09-09T04:46:22;157376.91;;;19.22;80.30
11888;BME280;6003;42.756;23.130;2022-09-09T04:48:50;157452.75;;;19.51;79.11
11888;BME280;6003;42.756;23.130;2022-09-09T04:51:18;157480.66;;;19.62;78.20
11888;BME280;6003;42.756;23.130;2022-09-09T04:53:45;157555.22;;;19.91;76.93
11888;BME280;6003;42.756;23.130;2022-09-09T04:56:15;157608.53;;;20.11;76.58
11888;BME280;6003;42.756;23.130;2022-09-09T04:58:43;157755.00;;;20.67;73.19
11888;BME280;6003;42.756;23.130;2022-09-09T05:01:13;157788.31;;;20.80;71.98
11888;BME280;6003;42.756;23.130;2022-09-09T05:03:41;157984.19;;;21.55;69.14
11888;BME280;6003;42.756;23.130;2022-09-09T05:06:12;158036.16;;;21.75;68.13
11888;BME280;6003;42.756;23.130;2022-09-09T05:08:41;158134.78;;;22.13;67.42
11888;BME280;6003;42.756;23.130;2022-09-09T05:11:19;158189.47;;;22.34;66.59
11888;BME280;6003;42.756;23.130;2022-09-09T05:13:57;158220.13;;;22.46;64.81
11888;BME280;6003;42.756;23.130;2022-09-09T05:16:26;158232.16;;;22.50;64.33
11888;BME280;6003;42.756;23.130;2022-09-09T05:18:53;158166.81;;;22.25;63.30
11888;BME280;6003;42.756;23.130;2022-09-09T05:21:22;158262.81;;;22.62;64.58
11888;BME280;6003;42.756;23.130;2022-09-09T05:23:50;158292.16;;;22.73;64.22
11888;BME280;6003;42.756;23.130;2022-09-09T05:26:18;158361.53;;;23.00;63.24
11888;BME280;6003;42.756;23.130;2022-09-09T05:28:46;158330.81;;;22.88;60.55
11888;BME280;6003;42.756;23.130;2022-09-09T05:31:14;158306.81;;;22.79;61.52
11888;BME280;6003;42.756;23.130;2022-09-09T05:33:44;158192.13;;;22.35;62.67
11888;BME280;6003;42.756;23.130;2022-09-09T05:36:13;158330.81;;;22.88;61.90
11888;BME280;6003;42.756;23.130;2022-09-09T05:38:40;158393.53;;;23.12;60.11
11888;BME280;6003;42.756;23.130;2022-09-09T05:41:08;158531.00;;;23.65;60.09
11888;BME280;6003;42.756;23.130;2022-09-09T05:43:35;158533.63;;;23.66;59.27
11888;BME280;6003;42.756;23.130;2022-09-09T05:46:04;158493.63;;;23.51;59.01
11888;BME280;6003;42.756;23.130;2022-09-09T05:48:32;158541.63;;;23.69;58.42
11888;BME280;6003;42.756;23.130;2022-09-09T05:51:01;158422.88;;;23.24;58.25
11888;BME280;6003;42.756;23.130;2022-09-09T05:53:28;158368.22;;;23.03;61.14
11888;BME280;6003;42.756;23.130;2022-09-09T05:56:01;158456.28;;;23.36;58.92
11888;BME280;6003;42.756;23.130;2022-09-09T05:58:30;158480.28;;;23.46;58.55
11888;BME280;6003;42.756;23.130;2022-09-09T06:01:02;158449.59;;;23.34;59.92
11888;BME280;6003;42.756;23.130;2022-09-09T06:03:29;158425.53;;;23.25;60.57
11888;BME280;6003;42.756;23.130;2022-09-09T06:05:58;158405.56;;;23.17;61.16
11888;BME280;6003;42.756;23.130;2022-09-09T06:08:27;158182.81;;;22.32;60.93
11888;BME280;6003;42.756;23.130;2022-09-09T06:11:01;158162.78;;;22.24;65.36
11888;BME280;6003;42.756;23.130;2022-09-09T06:13:29;158168.13;;;22.26;63.37
11888;BME280;6003;42.756;23.130;2022-09-09T06:15:56;158208.16;;;22.41;64.31
11888;BME280;6003;42.756;23.130;2022-09-09T06:18:24;158216.16;;;22.44;62.77
11888;BME280;6003;42.756;23.130;2022-09-09T06:20:56;158225.47;;;22.48;63.14
11888;BME280;6003;42.756;23.130;2022-09-09T06:23:23;158216.16;;;22.44;63.46
11888;BME280;6003;42.756;23.130;2022-09-09T06:26:00;158178.81;;;22.30;63.15
11888;BME280;6003;42.756;23.130;2022-09-09T06:28:27;158081.47;;;21.93;64.13
11888;BME280;6003;42.756;23.130;2022-09-09T06:30:57;158188.16;;;22.34;65.21
11888;BME280;6003;42.756;23.130;2022-09-09T06:33:25;158181.47;;;22.31;64.41
11888;BME280;6003;42.756;23.130;2022-09-09T06:35:53;158232.16;;;22.50;65.41
11888;BME280;6003;42.756;23.130;2022-09-09T06:38:22;158269.50;;;22.65;64.26
11888;BME280;6003;42.756;23.130;2022-09-09T06:40:54;158340.16;;;22.92;62.90
11888;BME280;6003;42.756;23.130;2022-09-09T06:43:22;158328.16;;;22.87;62.31
11888;BME280;6003;42.756;23.130;2022-09-09T06:45:56;158320.13;;;22.84;63.29
11888;BME280;6003;42.756;23.130;2022-09-09T06:48:23;158380.19;;;23.07;63.02
11888;BME280;6003;42.756;23.130;2022-09-09T06:50:51;158413.56;;;23.20;61.81
11888;BME280;6003;42.756;23.130;2022-09-09T06:53:19;158362.88;;;23.01;64.22
11888;BME280;6003;42.756;23.130;2022-09-09T06:55:46;158378.88;;;23.07;63.97
11888;BME280;6003;42.756;23.130;2022-09-09T06:58:15;158365.50;;;23.02;63.96
11888;BME280;6003;42.756;23.130;2022-09-09T07:00:41;158441.59;;;23.31;62.81
11888;BME280;6003;42.756;23.130;2022-09-09T07:03:09;158465.59;;;23.40;61.47
11888;BME280;6003;42.756;23.130;2022-09-09T07:05:36;158501.63;;;23.54;63.52
11888;BME280;6003;42.756;23.130;2022-09-09T07:08:04;158536.28;;;23.67;61.12
11888;BME280;6003;42.756;23.130;2022-09-09T07:10:31;158490.94;;;23.50;63.53
11888;BME280;6003;42.756;23.130;2022-09-09T07:12:59;158541.63;;;23.69;62.39
11888;BME280;6003;42.756;23.130;2022-09-09T07:15:29;158611.06;;;23.96;60.35
11888;BME280;6003;42.756;23.130;2022-09-09T07:18:00;158661.81;;;24.15;60.72
11888;BME280;6003;42.756;23.130;2022-09-09T07:20:27;158632.44;;;24.04;62.05
11888;BME280;6003;42.756;23.130;2022-09-09T07:22:55;158616.41;;;23.98;59.63
11888;BME280;6003;42.756;23.130;2022-09-09T07:25:24;158635.09;;;24.05;60.53
11888;BME280;6003;42.756;23.130;2022-09-09T07:27:56;158621.78;;;24.00;58.27
11888;BME280;6003;42.756;23.130;2022-09-09T07:30:23;158692.50;;;24.27;57.61
11888;BME280;6003;42.756;23.130;2022-09-09T07:32:52;158788.69;;;24.64;61.55
11888;BME280;6003;42.756;23.130;2022-09-09T07:35:22;158761.97;;;24.53;59.33
11888;BME280;6003;42.756;23.130;2022-09-09T07:37:49;158802.03;;;24.69;57.78
11888;BME280;6003;42.756;23.130;2022-09-09T07:40:16;158848.78;;;24.87;57.14
11888;BME280;6003;42.756;23.130;2022-09-09T07:42:43;158954.31;;;25.27;59.32
11888;BME280;6003;42.756;23.130;2022-09-09T07:45:10;158971.69;;;25.34;55.79
11888;BME280;6003;42.756;23.130;2022-09-09T07:47:37;159022.44;;;25.53;54.38
11888;BME280;6003;42.756;23.130;2022-09-09T07:50:06;159091.91;;;25.80;55.97
11888;BME280;6003;42.756;23.130;2022-09-09T07:52:35;159148.13;;;26.01;55.43
11888;BME280;6003;42.756;23.130;2022-09-09T07:55:03;159178.84;;;26.13;55.73
11888;BME280;6003;42.756;23.130;2022-09-09T07:57:30;159226.94;;;26.31;54.90
11888;BME280;6003;42.756;23.130;2022-09-09T07:59:57;159217.59;;;26.28;51.98
11888;BME280;6003;42.756;23.130;2022-09-09T08:02:24;159255.03;;;26.42;52.28
11888;BME280;6003;42.756;23.130;2022-09-09T08:04:53;159214.94;;;26.27;54.17
11888;BME280;6003;42.756;23.130;2022-09-09T08:07:22;159148.13;;;26.01;55.51
11888;BME280;6003;42.756;23.130;2022-09-09T08:09:49;159137.41;;;25.97;53.14
11888;BME280;6003;42.756;23.130;2022-09-09T08:12:16;159130.69;;;25.95;54.77
11888;BME280;6003;42.756;23.130;2022-09-09T08:14:44;159182.81;;;26.15;53.38
11888;BME280;6003;42.756;23.130;2022-09-09T08:17:11;159153.41;;;26.03;54.09
11888;BME280;6003;42.756;23.130;2022-09-09T08:19:38;159295.16;;;26.58;57.17
11888;BME280;6003;42.756;23.130;2022-09-09T08:22:05;159404.81;;;26.99;52.29
11888;BME280;6003;42.756;23.130;2022-09-09T08:24:34;159431.53;;;27.10;51.41
11888;BME280;6003;42.756;23.130;2022-09-09T08:27:01;159396.78;;;26.96;52.68
11888;BME280;6003;42.756;23.130;2022-09-09T08:29:29;159161.44;;;26.06;54.08
11888;BME280;6003;42.756;23.130;2022-09-09T08:31:57;159067.88;;;25.71;54.50
11888;BME280;6003;42.756;23.130;2022-09-09T08:34:25;159129.38;;;25.94;56.28
11888;BME280;6003;42.756;23.130;2022-09-09T08:36:53;159015.75;;;25.51;55.44
11888;BME280;6003;42.756;23.130;2022-09-09T08:39:21;158951.66;;;25.26;54.14
11888;BME280;6003;42.756;23.130;2022-09-09T08:42:06;158973.00;;;25.34;55.82
11888;BME280;6003;42.756;23.130;2022-09-09T08:44:52;159007.75;;;25.48;54.87
11888;BME280;6003;42.756;23.130;2022-09-09T08:47:24;159089.25;;;25.79;54.92
11888;BME280;6003;42.756;23.130;2022-09-09T08:50:02;159177.50;;;26.13;57.08
11888;BME280;6003;42.756;23.130;2022-09-09T08:52:37;159193.53;;;26.19;54.37
11888;BME280;6003;42.756;23.130;2022-09-09T08:55:15;159308.53;;;26.63;52.95
11888;BME280;6003;42.756;23.130;2022-09-09T08:57:51;159356.66;;;26.81;54.99
11888;BME280;6003;42.756;23.130;2022-09-09T09:00:19;159234.97;;;26.34;52.52
11888;BME280;6003;42.756;23.130;2022-09-09T09:02:56;159268.41;;;26.47;52.99
11888;BME280;6003;42.756;23.130;2022-09-09T09:05:32;159289.78;;;26.55;52.89
11888;BME280;6003;42.756;23.130;2022-09-09T09:08:10;159275.13;;;26.50;52.21
11888;BME280;6003;42.756;23.130;2022-09-09T09:10:46;159303.19;;;26.61;53.58
11888;BME280;6003;42.756;23.130;2022-09-09T09:13:18;159324.56;;;26.69;53.24
11888;BME280;6003;42.756;23.130;2022-09-09T09:15:51;159351.34;;;26.79;52.04
11888;BME280;6003;42.756;23.130;2022-09-09T09:18:20;159392.75;;;26.95;51.49
11888;BME280;6003;42.756;23.130;2022-09-09T09:20:55;159408.78;;;27.01;53.08
11888;BME280;6003;42.756;23.130;2022-09-09T09:23:29;159478.44;;;27.28;52.23
11888;BME280;6003;42.756;23.130;2022-09-09T09:26:01;159426.22;;;27.08;53.95
11888;BME280;6003;42.756;23.130;2022-09-09T09:28:31;159447.63;;;27.16;52.02
11888;BME280;6003;42.756;23.130;2022-09-09T09:31:01;159396.78;;;26.96;51.82
11888;BME280;6003;42.756;23.130;2022-09-09T09:33:34;159424.84;;;27.07;53.36
11888;BME280;6003;42.756;23.130;2022-09-09T09:36:02;159428.88;;;27.09;52.51
11888;BME280;6003;42.756;23.130;2022-09-09T09:38:31;159399.44;;;26.97;53.37
11888;BME280;6003;42.756;23.130;2022-09-09T09:40:59;159335.31;;;26.73;53.06
11888;BME280;6003;42.756;23.130;2022-09-09T09:43:27;159252.31;;;26.41;53.94
11888;BME280;6003;42.756;23.130;2022-09-09T09:45:56;159261.72;;;26.45;54.90
11888;BME280;6003;42.756;23.130;2022-09-09T09:48:25;159300.53;;;26.60;53.33
11888;BME280;6003;42.756;23.130;2022-09-09T09:50:54;159279.13;;;26.51;55.06
11888;BME280;6003;42.756;23.130;2022-09-09T09:53:25;159279.13;;;26.51;54.19
11888;BME280;6003;42.756;23.130;2022-09-09T09:55:56;159239.00;;;26.36;55.24
11888;BME280;6003;42.756;23.130;2022-09-09T09:58:25;159272.38;;;26.49;55.64
11888;BME280;6003;42.756;23.130;2022-09-09T10:00:53;159233.63;;;26.34;55.12
11888;BME280;6003;42.756;23.130;2022-09-09T10:03:25;159201.56;;;26.22;54.98
11888;BME280;6003;42.756;23.130;2022-09-09T10:05:52;159148.13;;;26.01;55.15
11888;BME280;6003;42.756;23.130;2022-09-09T10:08:20;159097.28;;;25.82;55.32
11888;BME280;6003;42.756;23.130;2022-09-09T10:11:05;159075.88;;;25.74;56.50
11888;BME280;6003;42.756;23.130;2022-09-09T10:13:42;159067.88;;;25.71;57.11
11888;BME280;6003;42.756;23.130;2022-09-09T10:16:25;159027.81;;;25.55;56.57
11888;BME280;6003;42.756;23.130;2022-09-09T10:19:01;159014.44;;;25.50;57.36
11888;BME280;6003;42.756;23.130;2022-09-09T10:21:48;158977.03;;;25.36;59.51
11888;BME280;6003;42.756;23.130;2022-09-09T10:24:53;159011.78;;;25.49;58.18
11888;BME280;6003;42.756;23.130;2022-09-09T10:27:27;159017.09;;;25.51;59.11
11888;BME280;6003;42.756;23.130;2022-09-09T10:30:04;159022.44;;;25.53;58.54
11888;BME280;6003;42.756;23.130;2022-09-09T10:32:45;159011.78;;;25.49;58.15
11888;BME280;6003;42.756;23.130;2022-09-09T10:35:25;159014.44;;;25.50;57.83
11888;BME280;6003;42.756;23.130;2022-09-09T10:53:35;159057.22;;;25.66;59.27
11888;BME280;6003;42.756;23.130;2022-09-09T10:56:07;159045.16;;;25.62;58.21
11888;BME280;6003;42.756;23.130;2022-09-09T10:58:40;159037.16;;;25.59;57.98
11888;BME280;6003;42.756;23.130;2022-09-09T11:01:15;159063.84;;;25.69;58.93
11888;BME280;6003;42.756;23.130;2022-09-09T11:03:49;159025.09;;;25.54;58.55
11888;BME280;6003;42.756;23.130;2022-09-09T11:06:26;158985.03;;;25.39;59.14
11888;BME280;6003;42.756;23.130;2022-09-09T11:08:57;158990.41;;;25.41;59.00
11888;BME280;6003;42.756;23.130;2022-09-09T11:11:32;158979.69;;;25.37;60.14
11888;BME280;6003;42.756;23.130;2022-09-09T11:14:08;158977.03;;;25.36;61.86
11888;BME280;6003;42.756;23.130;2022-09-09T11:16:41;159027.81;;;25.55;61.52
11888;BME280;6003;42.756;23.130;2022-09-09T11:19:15;159087.94;;;25.78;60.59
11888;BME280;6003;42.756;23.130;2022-09-09T11:21:46;159089.25;;;25.79;61.21
11888;BME280;6003;42.756;23.130;2022-09-09T11:24:19;159120.03;;;25.91;61.05
11888;BME280;6003;42.756;23.130;2022-09-09T11:26:53;159129.38;;;25.94;62.84
11888;BME280;6003;42.756;23.130;2022-09-09T11:32:47;159125.41;;;25.93;62.83
11888;BME280;6003;42.756;23.130;2022-09-09T11:35:32;158956.97;;;25.28;62.97
11888;BME280;6003;42.756;23.130;2022-09-09T11:38:16;158983.72;;;25.38;63.84
11888;BME280;6003;42.756;23.130;2022-09-09T11:40:48;159003.72;;;25.46;64.00
11888;BME280;6003;42.756;23.130;2022-09-09T11:43:24;159045.16;;;25.62;63.32
11888;BME280;6003;42.756;23.130;2022-09-09T11:45:55;159066.53;;;25.70;63.19
11888;BME280;6003;42.756;23.130;2022-09-09T11:48:28;159075.88;;;25.74;62.89
11888;BME280;6003;42.756;23.130;2022-09-09T11:50:58;159083.91;;;25.77;63.75
11888;BME280;6003;42.756;23.130;2022-09-09T11:53:26;159118.72;;;25.90;62.64
11888;BME280;6003;42.756;23.130;2022-09-09T11:56:09;159079.91;;;25.75;64.97
11888;BME280;6003;42.756;23.130;2022-09-09T11:58:54;159169.44;;;26.09;65.18
11888;BME280;6003;42.756;23.130;2022-09-09T12:01:30;159284.47;;;26.53;65.92
11888;BME280;6003;42.756;23.130;2022-09-09T12:04:26;159339.28;;;26.74;64.40
11888;BME280;6003;42.756;23.130;2022-09-09T12:06:57;159396.78;;;26.96;64.00
11888;BME280;6003;42.756;23.130;2022-09-09T12:09:31;159447.63;;;27.16;63.57
11888;BME280;6003;42.756;23.130;2022-09-09T12:12:20;159514.50;;;27.41;64.52
11888;BME280;6003;42.756;23.130;2022-09-09T12:15:03;159553.28;;;27.56;62.94
11888;BME280;6003;42.756;23.130;2022-09-09T12:17:47;159551.94;;;27.56;60.72
11888;BME280;6003;42.756;23.130;2022-09-09T12:20:17;159529.22;;;27.47;62.22
11888;BME280;6003;42.756;23.130;2022-09-09T12:23:02;159479.75;;;27.28;62.80
11888;BME280;6003;42.756;23.130;2022-09-09T12:25:43;159482.41;;;27.29;63.96
11888;BME280;6003;42.756;23.130;2022-09-09T12:28:18;159474.38;;;27.26;62.99
11888;BME280;6003;42.756;23.130;2022-09-09T12:30:52;159479.75;;;27.28;63.40
11888;BME280;6003;42.756;23.130;2022-09-09T12:33:22;159469.03;;;27.24;62.36
11888;BME280;6003;42.756;23.130;2022-09-09T12:35:54;159474.38;;;27.26;62.52
11888;BME280;6003;42.756;23.130;2022-09-09T12:38:27;159542.59;;;27.52;62.45
11888;BME280;6003;42.756;23.130;2022-09-09T12:40:58;159498.44;;;27.35;62.50
11888;BME280;6003;42.756;23.130;2022-09-09T12:43:28;159495.81;;;27.34;61.05
11888;BME280;6003;42.756;23.130;2022-09-09T12:45:56;159467.69;;;27.23;62.63
11888;BME280;6003;42.756;23.130;2022-09-09T12:48:31;159442.25;;;27.14;62.87
11888;BME280;6003;42.756;23.130;2022-09-09T12:50:59;159452.97;;;27.18;62.90
11888;BME280;6003;42.756;23.130;2022-09-09T12:53:30;159474.38;;;27.26;62.09
11888;BME280;6003;42.756;23.130;2022-09-09T12:56:01;159499.78;;;27.36;61.50
11888;BME280;6003;42.756;23.130;2022-09-09T12:58:30;159463.72;;;27.22;61.25
11888;BME280;6003;42.756;23.130;2022-09-09T13:01:01;159444.91;;;27.15;62.07
11888;BME280;6003;42.756;23.130;2022-09-09T13:03:31;159449.00;;;27.16;64.36
11888;BME280;6003;42.756;23.130;2022-09-09T13:06:10;159458.34;;;27.20;63.68
11888;BME280;6003;42.756;23.130;2022-09-09T13:08:39;159442.25;;;27.14;63.18
11888;BME280;6003;42.756;23.130;2022-09-09T13:11:12;159478.44;;;27.28;62.27
11888;BME280;6003;42.756;23.130;2022-09-09T13:13:43;159457.03;;;27.19;62.10
11888;BME280;6003;42.756;23.130;2022-09-09T13:16:21;159382.09;;;26.91;62.74
11888;BME280;6003;42.756;23.130;2022-09-09T13:18:49;159324.56;;;26.69;62.64
11888;BME280;6003;42.756;23.130;2022-09-09T13:21:17;159244.28;;;26.38;62.55
11888;BME280;6003;42.756;23.130;2022-09-09T13:23:49;159244.28;;;26.38;62.80
11888;BME280;6003;42.756;23.130;2022-09-09T13:26:22;159193.53;;;26.19;64.79
11888;BME280;6003;42.756;23.130;2022-09-09T13:28:51;159144.06;;;26.00;65.41
11888;BME280;6003;42.756;23.130;2022-09-09T13:31:23;159061.19;;;25.68;66.34
11888;BME280;6003;42.756;23.130;2022-09-09T13:33:52;159069.19;;;25.71;66.26
11888;BME280;6003;42.756;23.130;2022-09-09T13:36:28;159065.22;;;25.70;65.93
11888;BME280;6003;42.756;23.130;2022-09-09T13:38:58;159049.13;;;25.63;66.09